United Tenorio — A8UB9 — position and weather

sailwx.info

Track history (hours):
 
Tides and Currents Weather Stations Pressure Air Temp Water Temp Dewpoint Dewpoint Depression Visibility Wind Speed Wind Dir Waves Ship Positions

United Tenorio

Last reported at 2014-Nov-17 15:31 UTC. Time now 2014-Nov-23 18:38 UTC.
Position N 36°50' E 026°29'.

Length 174 m; draft 11 m.

Type: Cargo ship. MMSI: 636091880.

Date/timePositionNaut miles runAvg speedWind from/ knotsBaromVisibWave heightAir tempDewpointWater temp
2014-Nov-17 15:31N 36°50' E 026°29'1211.6
2014-Nov-17 14:32N 36°56' E 026°17'1110.9
2014-Nov-17 13:33N 37°05' E 026°10'1111.1
2014-Nov-17 12:33N 37°15' E 026°03'1010.3
2014-Nov-17 11:33N 37°24' E 025°56'1010.0
2014-Nov-17 10:33N 37°33' E 025°53'10 9.9
2014-Nov-17 09:33N 37°43' E 025°50'271 7.1
2014-Nov-15 19:29N 41°22' E 029°17'9 9.6
2014-Nov-15 18:33N 41°26' E 029°27'10 9.9
2014-Nov-15 17:32N 41°29' E 029°40'30310.0
2014-Nov-14 11:07N 43°14' E 036°05'610.5
2014-Nov-14 10:33N 43°16' E 036°13'3210.5
2014-Nov-14 07:33N 43°27' E 036°54'1210.5
2014-Nov-14 06:26N 43°31' E 037°09'  
2014-Nov-09 05:29N 44°02' E 039°06'0 0.0
2014-Nov-09 04:32N 44°02' E 039°06'0 0.0
2014-Nov-09 02:08N 44°02' E 039°06'0 0.0
2014-Nov-09 01:32N 44°02' E 039°06'0 0.0
2014-Nov-09 00:32N 44°02' E 039°06'0 0.0
2014-Nov-08 23:32N 44°02' E 039°06'0 0.0
2014-Nov-08 22:32N 44°02' E 039°06'0 0.0
2014-Nov-08 21:29N 44°02' E 039°06'0 0.0
2014-Nov-08 20:32N 44°02' E 039°06'0 0.0
2014-Nov-08 19:32N 44°02' E 039°06'0 0.0
2014-Nov-08 18:32N 44°02' E 039°06'0 0.0
2014-Nov-08 17:32N 44°02' E 039°06'0 0.0
2014-Nov-08 16:32N 44°02' E 039°06'0 0.0
2014-Nov-08 15:32N 44°02' E 039°06'0 0.1
2014-Nov-08 14:32N 44°02' E 039°06'0 0.0
2014-Nov-08 13:29N 44°02' E 039°06'0 0.0
2014-Nov-08 12:29N 44°02' E 039°06'0 0.0
2014-Nov-08 11:32N 44°02' E 039°06'0 0.0
2014-Nov-08 10:32N 44°02' E 039°06'0 0.0
2014-Nov-08 09:29N 44°02' E 039°06'0 0.0
2014-Nov-08 08:26N 44°02' E 039°06'0 0.0
2014-Nov-08 07:29N 44°02' E 039°06'0 0.0
2014-Nov-08 06:32N 44°02' E 039°06'0 0.0
2014-Nov-08 05:32N 44°02' E 039°06'24 2.5
2014-Nov-07 20:15N 43°47' E 038°42'  
Track history (hours):
 
Tides and Currents Weather Stations Pressure Air Temp Water Temp Dewpoint Dewpoint Depression Visibility Wind Speed Wind Dir Waves Ship Positions

United Tenorio

Last reported at 2014-Nov-17 15:31 UTC. Time now 2014-Nov-23 18:38 UTC.
Position N 36°50' E 026°29'.

Length 174 m; draft 11 m.

Type: Cargo ship. MMSI: 636091880.

Date/timePositionNaut miles runAvg speedWind from/ knotsBaromVisibWave heightAir tempDewpointWater temp
2014-Nov-17 15:31N 36°50' E 026°29'1211.6
2014-Nov-17 14:32N 36°56' E 026°17'1110.9
2014-Nov-17 13:33N 37°05' E 026°10'1111.1
2014-Nov-17 12:33N 37°15' E 026°03'1010.3
2014-Nov-17 11:33N 37°24' E 025°56'1010.0
2014-Nov-17 10:33N 37°33' E 025°53'10 9.9
2014-Nov-17 09:33N 37°43' E 025°50'271 7.1
2014-Nov-15 19:29N 41°22' E 029°17'9 9.6
2014-Nov-15 18:33N 41°26' E 029°27'10 9.9
2014-Nov-15 17:32N 41°29' E 029°40'30310.0
2014-Nov-14 11:07N 43°14' E 036°05'610.5
2014-Nov-14 10:33N 43°16' E 036°13'3210.5
2014-Nov-14 07:33N 43°27' E 036°54'1210.5
2014-Nov-14 06:26N 43°31' E 037°09'  
2014-Nov-09 05:29N 44°02' E 039°06'0 0.0
2014-Nov-09 04:32N 44°02' E 039°06'0 0.0
2014-Nov-09 02:08N 44°02' E 039°06'0 0.0
2014-Nov-09 01:32N 44°02' E 039°06'0 0.0
2014-Nov-09 00:32N 44°02' E 039°06'0 0.0
2014-Nov-08 23:32N 44°02' E 039°06'0 0.0
2014-Nov-08 22:32N 44°02' E 039°06'0 0.0
2014-Nov-08 21:29N 44°02' E 039°06'0 0.0
2014-Nov-08 20:32N 44°02' E 039°06'0 0.0
2014-Nov-08 19:32N 44°02' E 039°06'0 0.0
2014-Nov-08 18:32N 44°02' E 039°06'0 0.0
2014-Nov-08 17:32N 44°02' E 039°06'0 0.0
2014-Nov-08 16:32N 44°02' E 039°06'0 0.0
2014-Nov-08 15:32N 44°02' E 039°06'0 0.1
2014-Nov-08 14:32N 44°02' E 039°06'0 0.0
2014-Nov-08 13:29N 44°02' E 039°06'0 0.0
2014-Nov-08 12:29N 44°02' E 039°06'0 0.0
2014-Nov-08 11:32N 44°02' E 039°06'0 0.0
2014-Nov-08 10:32N 44°02' E 039°06'0 0.0
2014-Nov-08 09:29N 44°02' E 039°06'0 0.0
2014-Nov-08 08:26N 44°02' E 039°06'0 0.0
2014-Nov-08 07:29N 44°02' E 039°06'0 0.0
2014-Nov-08 06:32N 44°02' E 039°06'0 0.0
2014-Nov-08 05:32N 44°02' E 039°06'24 2.5
2014-Nov-07 20:15N 43°47' E 038°42'  

Dump ship's entire track history